createdAt,value
2018-09-17T00:01:20.804Z,56.16
2018-09-17T00:03:50.235Z,56.05
2018-09-17T00:06:19.813Z,56.31
2018-09-17T00:08:49.627Z,56.19
2018-09-17T00:11:19.132Z,56.42
2018-09-17T00:13:48.841Z,56.66
2018-09-17T00:16:18.339Z,56.67
2018-09-17T00:18:47.747Z,57.04
2018-09-17T00:21:17.251Z,57.34
2018-09-17T00:23:46.757Z,57.56
2018-09-17T00:26:16.157Z,57.67
2018-09-17T00:28:45.558Z,57.48
2018-09-17T00:31:14.961Z,57.84
2018-09-17T00:33:44.363Z,57.45
2018-09-17T00:36:13.765Z,57.57
2018-09-17T00:38:43.267Z,57.75
2018-09-17T00:41:12.562Z,58.40
2018-09-17T00:43:42.072Z,57.58
2018-09-17T00:46:11.577Z,58.32
2018-09-17T00:48:40.979Z,58.18
2018-09-17T00:51:10.483Z,58.44
2018-09-17T00:53:39.889Z,58.31
2018-09-17T00:56:09.210Z,58.84
2018-09-17T00:58:38.689Z,58.27
2018-09-17T01:01:08.194Z,58.61
2018-09-17T01:03:37.800Z,58.46
2018-09-17T01:06:07.202Z,58.99
2018-09-17T01:08:36.809Z,59.19
2018-09-17T01:11:06.519Z,59.62
2018-09-17T01:13:35.838Z,59.49
2018-09-17T01:16:05.219Z,59.67
2018-09-17T01:18:34.725Z,58.88
2018-09-17T01:21:04.127Z,58.37
2018-09-17T01:23:33.632Z,57.68
2018-09-17T01:26:03.027Z,58.50
2018-09-17T01:28:32.435Z,58.75
2018-09-17T01:31:01.853Z,58.23
2018-09-17T01:33:31.271Z,57.03
2018-09-17T01:36:00.844Z,57.42
2018-09-17T01:38:30.336Z,57.96
2018-09-17T01:40:59.878Z,58.31
2018-09-17T01:43:29.458Z,57.97
2018-09-17T01:45:58.860Z,57.89
2018-09-17T01:48:28.263Z,57.85
2018-09-17T01:50:57.665Z,58.60
2018-09-17T01:53:26.970Z,59.45
2018-09-17T01:55:56.468Z,59.57
2018-09-17T01:58:26.689Z,59.56
2018-09-17T02:00:56.298Z,59.84
2018-09-17T02:03:25.799Z,60.47
2018-09-17T02:05:55.203Z,60.27
2018-09-17T02:08:24.603Z,60.39
2018-09-17T02:10:54.106Z,60.10
2018-09-17T02:13:23.620Z,60.07
2018-09-17T02:15:53.067Z,60.45
2018-09-17T02:18:22.516Z,60.82
2018-09-17T02:20:51.922Z,61.16
2018-09-17T02:23:21.470Z,61.16
2018-09-17T02:25:50.931Z,60.25
2018-09-17T02:28:20.332Z,60.55
2018-09-17T02:30:49.734Z,59.62
2018-09-17T02:33:19.349Z,57.47
2018-09-17T02:35:48.699Z,58.26
2018-09-17T02:38:18.162Z,59.60
2018-09-17T02:40:47.500Z,59.25
2018-09-17T02:43:16.852Z,60.52
2018-09-17T02:45:46.248Z,60.16
2018-09-17T02:48:15.753Z,61.17
2018-09-17T02:50:45.091Z,61.59
2018-09-17T02:53:14.453Z,62.04
2018-09-17T02:55:43.854Z,61.67
2018-09-17T02:58:13.155Z,61.39
2018-09-17T03:00:42.559Z,60.89
2018-09-17T03:03:11.960Z,61.10
2018-09-17T03:05:41.360Z,60.89
2018-09-17T03:08:10.761Z,61.03
2018-09-17T03:10:40.168Z,60.92
2018-09-17T03:13:09.566Z,60.96
2018-09-17T03:15:46.196Z,61.05
2018-09-17T03:18:15.743Z,60.81
2018-09-17T03:20:45.145Z,61.30
2018-09-17T03:23:14.650Z,61.22
2018-09-17T03:25:44.154Z,60.67
2018-09-17T03:28:13.556Z,60.97
2018-09-17T03:30:43.020Z,61.21
2018-09-17T03:33:12.563Z,61.65
2018-09-17T03:35:41.862Z,62.18
2018-09-17T03:38:48.334Z,60.76
2018-09-17T03:41:18.819Z,60.06
2018-09-17T03:43:51.131Z,61.11
2018-09-17T03:46:20.664Z,61.53
2018-09-17T03:48:50.036Z,61.17
2018-09-17T03:51:19.273Z,61.16
2018-09-17T03:53:48.634Z,60.85
2018-09-17T03:56:18.037Z,61.46
2018-09-17T03:58:47.442Z,62.02
2018-09-17T04:01:16.842Z,61.98
2018-09-17T04:03:46.447Z,61.96
2018-09-17T04:06:15.849Z,62.41
2018-09-17T04:08:45.350Z,62.69
2018-09-17T04:11:14.756Z,62.69
2018-09-17T04:13:44.157Z,61.97
2018-09-17T04:16:13.525Z,61.95
2018-09-17T04:18:42.856Z,62.39
2018-09-17T04:21:12.260Z,62.45
2018-09-17T04:23:41.764Z,62.01
2018-09-17T04:26:12.293Z,62.17
2018-09-17T04:28:41.901Z,62.18
2018-09-17T04:31:11.201Z,61.98
2018-09-17T04:33:42.754Z,62.59
2018-09-17T04:36:12.949Z,62.75
2018-09-17T04:38:42.275Z,62.80
2018-09-17T04:41:11.670Z,63.24
2018-09-17T04:43:40.971Z,63.33
2018-09-17T04:46:10.497Z,62.98
2018-09-17T04:48:39.886Z,62.97
2018-09-17T04:51:09.281Z,63.24
2018-09-17T04:53:38.684Z,62.67
2018-09-17T04:56:07.986Z,62.29
2018-09-17T04:58:37.282Z,62.61
2018-09-17T05:01:06.789Z,62.61
2018-09-17T05:03:36.190Z,62.95
2018-09-17T05:06:05.590Z,62.55
2018-09-17T05:08:34.979Z,62.85
2018-09-17T05:11:04.501Z,62.68
2018-09-17T05:13:33.990Z,62.47
2018-09-17T05:16:03.707Z,62.83
2018-09-17T05:18:33.015Z,63.23
2018-09-17T05:21:02.411Z,62.94
2018-09-17T05:23:31.733Z,62.71
2018-09-17T05:26:01.112Z,62.47
2018-09-17T05:28:30.513Z,62.55
2018-09-17T05:30:59.915Z,62.24
2018-09-17T05:33:29.317Z,62.60
2018-09-17T05:35:58.824Z,62.53
2018-09-17T05:38:28.328Z,62.76
2018-09-17T05:40:57.624Z,63.00
2018-09-17T05:43:27.235Z,63.42
2018-09-17T05:45:56.637Z,62.14
2018-09-17T05:48:26.037Z,59.00
2018-09-17T05:50:55.543Z,56.28
2018-09-17T05:53:25.156Z,54.87
2018-09-17T05:55:54.754Z,55.25
2018-09-17T05:58:24.158Z,57.10
2018-09-17T06:00:53.559Z,58.23
2018-09-17T06:03:22.961Z,58.63
2018-09-17T06:05:52.412Z,59.05
2018-09-17T06:08:21.802Z,59.18
2018-09-17T06:10:51.397Z,59.29
2018-09-17T06:13:20.875Z,59.72
2018-09-17T06:15:50.790Z,59.94
2018-09-17T06:18:20.171Z,59.60
2018-09-17T06:20:49.696Z,59.65
2018-09-17T06:23:19.114Z,59.41
2018-09-17T06:25:48.602Z,59.98
2018-09-17T06:28:18.084Z,60.24
2018-09-17T06:30:47.610Z,59.32
2018-09-17T06:33:17.029Z,58.44
2018-09-17T06:35:46.413Z,58.50
2018-09-17T06:38:15.712Z,58.39
2018-09-17T06:40:45.115Z,57.10
2018-09-17T06:43:14.620Z,56.96
2018-09-17T06:45:44.125Z,56.40
2018-09-17T06:48:13.527Z,56.80
2018-09-17T06:50:43.030Z,57.22
2018-09-17T06:53:12.533Z,56.66
2018-09-17T06:55:41.858Z,56.57
2018-09-17T06:58:11.236Z,55.37
2018-09-17T07:00:40.741Z,55.60
2018-09-17T07:03:10.142Z,54.59
2018-09-17T07:05:39.545Z,54.25
2018-09-17T07:08:08.949Z,53.99
2018-09-17T07:10:38.348Z,54.22
2018-09-17T07:13:07.952Z,54.04
2018-09-17T07:15:37.359Z,53.27
2018-09-17T07:18:06.916Z,52.49
2018-09-17T07:20:36.260Z,52.08
2018-09-17T07:23:05.779Z,51.45
2018-09-17T07:25:35.244Z,50.83
2018-09-17T07:28:04.667Z,50.04
2018-09-17T07:30:34.009Z,50.32
2018-09-17T07:33:03.375Z,50.31
2018-09-17T07:35:32.879Z,49.36
2018-09-17T07:38:02.689Z,49.48
2018-09-17T07:40:32.311Z,49.38
2018-09-17T07:43:01.699Z,48.33
2018-09-17T07:45:31.155Z,48.37
2018-09-17T07:48:00.504Z,48.00
2018-09-17T07:50:29.904Z,47.67
2018-09-17T07:52:59.333Z,47.46
2018-09-17T07:55:28.811Z,46.92
2018-09-17T07:57:58.215Z,47.00
2018-09-17T08:00:29.150Z,46.34
2018-09-17T08:02:58.660Z,46.22
2018-09-17T08:05:28.054Z,45.87
2018-09-17T08:07:57.353Z,46.20
2018-09-17T08:10:27.051Z,46.49
2018-09-17T08:12:56.571Z,46.29
2018-09-17T08:15:26.071Z,46.59
2018-09-17T08:17:55.475Z,45.66
2018-09-17T08:20:24.966Z,45.72
2018-09-17T08:22:54.380Z,45.59
2018-09-17T08:25:24.026Z,45.98
2018-09-17T08:27:53.308Z,47.00
2018-09-17T08:30:22.790Z,45.59
2018-09-17T08:32:52.294Z,44.75
2018-09-17T08:35:21.803Z,44.86
2018-09-17T08:37:51.301Z,43.14
2018-09-17T08:40:20.604Z,42.95
2018-09-17T08:42:50.021Z,41.35
2018-09-17T08:45:19.507Z,42.24
2018-09-17T08:47:48.915Z,41.26
2018-09-17T08:50:18.313Z,40.16
2018-09-17T08:52:47.638Z,38.86
2018-09-17T08:55:22.485Z,39.30
2018-09-17T08:57:56.861Z,38.88
2018-09-17T09:00:31.689Z,37.99
2018-09-17T09:03:06.210Z,38.46
2018-09-17T09:06:39.000Z,37.76
2018-09-17T09:09:10.327Z,37.71
2018-09-17T09:11:44.867Z,37.08
2018-09-17T09:14:19.394Z,36.27
2018-09-17T09:16:48.792Z,37.26
2018-09-17T09:19:18.099Z,35.34
2018-09-17T09:21:47.599Z,35.05
2018-09-17T09:24:16.998Z,35.03
2018-09-17T09:26:46.503Z,33.39
2018-09-17T09:29:15.904Z,34.65
2018-09-17T09:31:45.414Z,34.39
2018-09-17T09:34:14.912Z,33.69
2018-09-17T09:36:44.416Z,33.92
2018-09-17T09:39:13.819Z,33.26
2018-09-17T09:41:43.304Z,32.39
2018-09-17T09:44:12.895Z,32.61
2018-09-17T09:46:42.313Z,31.53
2018-09-17T09:49:11.733Z,31.28
2018-09-17T09:51:41.134Z,30.89
2018-09-17T09:54:10.537Z,30.67
2018-09-17T09:56:39.939Z,30.50
2018-09-17T09:59:09.348Z,30.51
2018-09-17T10:02:45.918Z,29.89
2018-09-17T10:05:15.378Z,30.13
2018-09-17T10:07:44.644Z,30.36
2018-09-17T10:10:19.250Z,29.90
2018-09-17T10:12:54.075Z,29.73
2018-09-17T10:15:30.539Z,28.12
2018-09-17T10:19:09.164Z,27.66
2018-09-17T10:21:38.464Z,27.95
2018-09-17T10:24:07.763Z,28.24
2018-09-17T10:26:37.066Z,26.81
2018-09-17T10:29:06.568Z,28.06
2018-09-17T10:31:36.189Z,27.23
2018-09-17T10:34:05.678Z,27.08
2018-09-17T10:36:35.181Z,26.93
2018-09-17T10:39:06.452Z,27.75
2018-09-17T10:41:35.936Z,28.60
2018-09-17T10:44:06.562Z,26.34
2018-09-17T10:46:36.784Z,26.65
2018-09-17T10:49:06.515Z,27.45
2018-09-17T10:51:35.895Z,27.51
2018-09-17T10:54:05.598Z,26.18
2018-09-17T10:56:35.006Z,25.81
2018-09-17T10:59:04.408Z,27.22
2018-09-17T11:01:33.709Z,27.01
2018-09-17T11:04:03.108Z,25.96
2018-09-17T11:06:32.717Z,25.87
2018-09-17T11:09:02.116Z,25.69
2018-09-17T11:11:31.521Z,25.87
2018-09-17T11:14:00.922Z,25.06
2018-09-17T11:16:30.221Z,24.99
2018-09-17T11:18:59.571Z,25.88
2018-09-17T11:21:28.959Z,25.13
2018-09-17T11:23:58.374Z,25.48
2018-09-17T11:26:27.830Z,24.71
2018-09-17T11:28:57.334Z,23.63
2018-09-17T11:31:26.884Z,24.07
2018-09-17T11:33:56.440Z,24.62
2018-09-17T11:36:25.948Z,25.25
2018-09-17T11:38:55.556Z,24.27
2018-09-17T11:41:24.892Z,23.96
2018-09-17T11:43:54.361Z,24.19
2018-09-17T11:46:23.760Z,24.83
2018-09-17T11:48:53.159Z,25.14
2018-09-17T11:51:22.567Z,24.73
2018-09-17T11:53:51.871Z,24.71
2018-09-17T11:56:21.272Z,25.27
2018-09-17T11:58:50.772Z,25.28
2018-09-17T12:01:25.702Z,25.22
2018-09-17T12:04:00.325Z,24.67
2018-09-17T12:06:34.836Z,24.08
2018-09-17T12:09:05.480Z,23.79
2018-09-17T12:11:34.869Z,23.54
2018-09-17T12:14:04.284Z,23.20
2018-09-17T12:16:33.788Z,23.28
2018-09-17T12:19:03.190Z,23.48
2018-09-17T12:21:32.592Z,23.79
2018-09-17T12:24:02.362Z,23.73
2018-09-17T12:26:31.699Z,24.08
2018-09-17T12:29:01.209Z,23.56
2018-09-17T12:31:30.556Z,22.75
2018-09-17T12:34:00.090Z,22.81
2018-09-17T12:36:29.517Z,22.61
2018-09-17T12:38:58.918Z,22.53
2018-09-17T12:41:28.423Z,22.56
2018-09-17T12:43:57.922Z,21.47
2018-09-17T12:46:27.328Z,21.56
2018-09-17T12:48:56.834Z,21.21
2018-09-17T12:51:26.543Z,22.14
2018-09-17T12:53:56.246Z,21.73
2018-09-17T12:56:25.654Z,22.09
2018-09-17T12:58:55.181Z,21.97
2018-09-17T13:01:24.679Z,21.59
2018-09-17T13:03:54.079Z,22.30
2018-09-17T13:06:23.569Z,20.90
2018-09-17T13:08:53.177Z,21.32
2018-09-17T13:11:22.680Z,22.18
2018-09-17T13:13:52.247Z,21.62
2018-09-17T13:16:21.582Z,21.67
2018-09-17T13:18:52.019Z,21.82
2018-09-17T13:21:21.632Z,21.79
2018-09-17T13:23:51.023Z,22.00
2018-09-17T13:26:20.631Z,21.76
2018-09-17T13:28:50.133Z,21.18
2018-09-17T13:31:19.638Z,21.09
2018-09-17T13:33:49.052Z,20.81
2018-09-17T13:36:18.442Z,20.55
2018-09-17T13:38:47.946Z,21.63
2018-09-17T13:41:17.350Z,20.27
2018-09-17T13:43:46.649Z,20.44
2018-09-17T13:46:16.033Z,20.37
2018-09-17T13:48:45.349Z,20.64
2018-09-17T13:51:14.860Z,20.57
2018-09-17T13:53:44.268Z,20.64
2018-09-17T13:56:13.710Z,22.28
2018-09-17T13:58:43.368Z,21.58
2018-09-17T14:01:12.772Z,21.86
2018-09-17T14:03:42.274Z,20.61
2018-09-17T14:06:11.676Z,21.08
2018-09-17T14:08:41.284Z,21.52
2018-09-17T14:11:10.787Z,22.58
2018-09-17T14:13:40.192Z,22.60
2018-09-17T14:16:10.302Z,22.64
2018-09-17T14:18:40.119Z,21.98
2018-09-17T14:21:09.627Z,21.59
2018-09-17T14:23:39.023Z,22.28
2018-09-17T14:26:08.598Z,21.77
2018-09-17T14:28:37.947Z,21.96
2018-09-17T14:31:07.461Z,22.84
2018-09-17T14:33:38.679Z,21.86
2018-09-17T14:36:08.351Z,22.13
2018-09-17T14:38:37.920Z,22.01
2018-09-17T14:41:07.398Z,22.00
2018-09-17T14:43:36.749Z,22.43
2018-09-17T14:46:06.157Z,21.36
2018-09-17T14:48:35.611Z,20.70
2018-09-17T14:51:05.124Z,21.32
2018-09-17T14:53:34.584Z,21.88
2018-09-17T14:56:04.019Z,22.28
2018-09-17T14:58:33.372Z,21.53
2018-09-17T15:01:02.645Z,21.55
2018-09-17T15:03:31.833Z,22.18
2018-09-17T15:06:01.222Z,21.82
2018-09-17T15:08:30.642Z,22.01
2018-09-17T15:11:00.020Z,21.15
2018-09-17T15:13:29.446Z,21.18
2018-09-17T15:15:59.558Z,21.74
2018-09-17T15:18:29.359Z,21.47
2018-09-17T15:20:58.776Z,20.14
2018-09-17T15:23:28.259Z,20.37
2018-09-17T15:25:57.774Z,22.00
2018-09-17T15:28:27.420Z,21.46
2018-09-17T15:30:56.861Z,20.57
2018-09-17T15:33:26.380Z,21.22
2018-09-17T15:35:55.801Z,22.18
2018-09-17T15:38:25.389Z,20.75
2018-09-17T15:40:54.858Z,22.04
2018-09-17T15:43:24.308Z,21.75
2018-09-17T15:45:53.798Z,22.15
2018-09-17T15:48:23.205Z,21.83
2018-09-17T15:50:52.702Z,22.03
2018-09-17T15:53:22.107Z,21.99
2018-09-17T15:55:51.534Z,22.38
2018-09-17T15:58:20.927Z,22.18
2018-09-17T16:00:50.445Z,21.58
2018-09-17T16:03:19.920Z,21.53
2018-09-17T16:05:49.424Z,22.09
2018-09-17T16:08:19.031Z,22.56
2018-09-17T16:10:48.434Z,23.38
2018-09-17T16:13:17.830Z,22.80
2018-09-17T16:15:48.499Z,23.47
2018-09-17T16:18:18.380Z,23.93
2018-09-17T16:20:47.832Z,24.25
2018-09-17T16:23:17.182Z,25.09
2018-09-17T16:25:46.893Z,25.52
2018-09-17T16:28:16.191Z,26.55
2018-09-17T16:30:45.590Z,26.82
2018-09-17T16:33:15.101Z,27.29
2018-09-17T16:35:44.501Z,27.35
2018-09-17T16:38:14.006Z,27.72
2018-09-17T16:40:43.503Z,28.46
2018-09-17T16:43:12.912Z,29.00
2018-09-17T16:45:42.315Z,29.66
2018-09-17T16:48:11.799Z,29.64
2018-09-17T16:50:41.225Z,30.73
2018-09-17T16:53:10.797Z,30.46
2018-09-17T16:55:40.088Z,30.97
2018-09-17T16:58:09.425Z,31.51
2018-09-17T17:00:38.827Z,31.70
2018-09-17T17:03:08.235Z,31.50
2018-09-17T17:05:37.734Z,32.68
2018-09-17T17:08:07.345Z,32.74
2018-09-17T17:10:36.644Z,33.31
2018-09-17T17:13:06.147Z,33.91
2018-09-17T17:15:35.551Z,35.03
2018-09-17T17:18:05.013Z,35.19
2018-09-17T17:20:34.570Z,35.16
2018-09-17T17:23:04.163Z,35.34
2018-09-17T17:25:33.772Z,35.02
2018-09-17T17:28:03.307Z,35.62
2018-09-17T17:30:32.781Z,36.33
2018-09-17T17:33:02.287Z,36.33
2018-09-17T17:35:31.790Z,36.50
2018-09-17T17:38:01.190Z,36.76
2018-09-17T17:40:30.755Z,36.61
2018-09-17T17:43:00.103Z,36.38
2018-09-17T17:45:29.704Z,36.70
2018-09-17T17:47:59.208Z,36.66
2018-09-17T17:50:29.047Z,37.14
2018-09-17T17:53:01.648Z,37.14
2018-09-17T17:55:31.112Z,37.34
2018-09-17T17:58:01.047Z,37.34
2018-09-17T18:00:30.637Z,36.60
2018-09-17T18:03:00.026Z,36.32
2018-09-17T18:05:29.529Z,36.39
2018-09-17T18:08:00.262Z,36.95
2018-09-17T18:10:29.972Z,36.94
2018-09-17T18:12:59.479Z,35.38
2018-09-17T18:15:28.988Z,36.66
2018-09-17T18:17:58.588Z,37.52
2018-09-17T18:20:28.296Z,37.01
2018-09-17T18:22:57.803Z,37.26
2018-09-17T18:25:27.305Z,37.61
2018-09-17T18:27:56.710Z,37.90
2018-09-17T18:30:26.206Z,38.71
2018-09-17T18:32:55.687Z,39.09
2018-09-17T18:35:25.119Z,38.84
2018-09-17T18:37:54.623Z,39.82
2018-09-17T18:40:24.178Z,39.15
2018-09-17T18:42:54.664Z,39.03
2018-09-17T18:45:24.327Z,39.59
2018-09-17T18:47:53.876Z,39.24
2018-09-17T18:50:23.374Z,39.26
2018-09-17T18:52:52.877Z,38.87
2018-09-17T18:55:22.191Z,38.96
2018-09-17T18:57:51.589Z,39.58
2018-09-17T19:00:21.015Z,39.31
2018-09-17T19:02:50.454Z,39.27
2018-09-17T19:05:19.890Z,39.38
2018-09-17T19:07:49.393Z,39.56
2018-09-17T19:10:18.897Z,40.35
2018-09-17T19:12:48.355Z,40.79
2018-09-17T19:15:22.835Z,41.31
2018-09-17T19:17:52.378Z,41.15
2018-09-17T19:20:21.906Z,41.38
2018-09-17T19:22:56.659Z,41.54
2018-09-17T19:25:26.062Z,41.88
2018-09-17T19:28:00.922Z,42.46
2018-09-17T19:30:30.394Z,42.99
2018-09-17T19:32:59.907Z,43.24
2018-09-17T19:35:29.635Z,44.02
2018-09-17T19:38:04.377Z,43.76
2018-09-17T19:40:33.737Z,44.22
2018-09-17T19:43:03.241Z,44.43
2018-09-17T19:45:38.072Z,44.70
2018-09-17T19:48:07.943Z,44.73
2018-09-17T19:50:42.827Z,45.61
2018-09-17T19:53:12.312Z,45.51
2018-09-17T19:55:41.767Z,45.77
2018-09-17T19:58:16.549Z,45.49
2018-09-17T20:00:46.199Z,45.66
2018-09-17T20:03:15.770Z,45.29
2018-09-17T20:05:50.950Z,45.08
2018-09-17T20:08:20.609Z,45.12
2018-09-17T20:10:50.627Z,45.24
2018-09-17T20:13:20.777Z,45.17
2018-09-17T20:15:50.146Z,45.37
2018-09-17T20:18:19.896Z,45.27
2018-09-17T20:20:49.451Z,45.47
2018-09-17T20:23:18.864Z,45.63
2018-09-17T20:25:48.266Z,46.02
2018-09-17T20:28:17.777Z,46.83
2018-09-17T20:30:47.179Z,46.82
2018-09-17T20:33:16.779Z,47.32
2018-09-17T20:35:46.186Z,47.34
2018-09-17T20:38:15.565Z,47.37
2018-09-17T20:40:44.987Z,47.49
2018-09-17T20:43:14.489Z,47.76
2018-09-17T20:45:43.994Z,48.09
2018-09-17T20:48:13.334Z,48.27
2018-09-17T20:50:42.733Z,48.35
2018-09-17T20:53:12.252Z,48.70
2018-09-17T20:55:41.614Z,49.04
2018-09-17T20:58:11.207Z,49.04
2018-09-17T21:00:40.770Z,49.20
2018-09-17T21:03:10.534Z,49.06
2018-09-17T21:05:40.341Z,49.07
2018-09-17T21:08:09.841Z,48.97
2018-09-17T21:10:39.066Z,49.00
2018-09-17T21:15:42.675Z,48.72
2018-09-17T21:18:12.160Z,48.38
2018-09-17T21:20:41.665Z,48.59
2018-09-17T21:23:11.135Z,48.82
2018-09-17T21:25:40.466Z,48.77
2018-09-17T21:28:10.011Z,48.46
2018-09-17T21:30:39.818Z,48.83
2018-09-17T21:33:10.014Z,49.12
2018-09-17T21:35:39.821Z,49.05
2018-09-17T21:38:09.629Z,49.25
2018-09-17T21:40:39.405Z,49.16
2018-09-17T21:43:09.231Z,49.18
2018-09-17T21:45:39.758Z,50.00
2018-09-17T21:48:09.804Z,49.44
2018-09-17T21:50:40.738Z,49.05
2018-09-17T21:53:11.470Z,49.09
2018-09-17T21:55:42.192Z,49.50
2018-09-17T21:58:11.744Z,49.51
2018-09-17T22:00:46.436Z,49.78
2018-09-17T22:03:16.038Z,49.90
2018-09-17T22:05:45.748Z,50.09
2018-09-17T22:08:15.149Z,50.34
2018-09-17T22:10:44.741Z,50.32
2018-09-17T22:13:14.367Z,50.67
2018-09-17T22:15:43.794Z,51.32
2018-09-17T22:18:13.279Z,51.36
2018-09-17T22:20:42.634Z,51.39
2018-09-17T22:23:11.942Z,51.62
2018-09-17T22:25:41.437Z,51.78
2018-09-17T22:28:11.288Z,51.88
2018-09-17T22:30:40.896Z,51.90
2018-09-17T22:33:11.525Z,52.13
2018-09-17T22:35:40.931Z,52.11
2018-09-17T22:38:10.545Z,52.07
2018-09-17T22:40:39.779Z,52.30
2018-09-17T22:43:09.311Z,52.43
2018-09-17T22:45:38.740Z,52.11
2018-09-17T22:48:08.245Z,52.85
2018-09-17T22:50:37.723Z,52.72
2018-09-17T22:53:07.153Z,53.07
2018-09-17T22:55:36.718Z,53.00
2018-09-17T22:58:06.157Z,53.34
2018-09-17T23:00:35.558Z,53.41
2018-09-17T23:03:04.961Z,53.12
2018-09-17T23:05:34.267Z,53.29
2018-09-17T23:08:03.764Z,53.25
2018-09-17T23:10:33.167Z,53.70
2018-09-17T23:13:02.673Z,53.70
2018-09-17T23:15:32.281Z,53.78
2018-09-17T23:18:01.789Z,54.31
2018-09-17T23:20:31.289Z,54.23
2018-09-17T23:23:00.794Z,55.01
2018-09-17T23:25:30.298Z,55.16
2018-09-17T23:27:59.802Z,55.21
2018-09-17T23:30:29.203Z,55.02
2018-09-17T23:32:58.771Z,55.41
2018-09-17T23:35:28.111Z,55.62
2018-09-17T23:37:57.558Z,55.67
2018-09-17T23:40:27.017Z,55.69
2018-09-17T23:42:56.928Z,55.84
2018-09-17T23:45:26.326Z,55.58
2018-09-17T23:47:55.839Z,55.89
2018-09-17T23:50:25.339Z,55.39
2018-09-17T23:52:54.842Z,55.54
2018-09-17T23:55:24.255Z,55.79
2018-09-17T23:57:53.750Z,55.57
